Alba, Pennsylvania
Current Conditions -  °F | °C
As of 4:55 AM on Saturday 25 Oct 2014 (Local Time) from KN38 Reporting Station
Broken Clouds Broken Clouds  
Wind Chill: 39°   Ceiling: 4400
Heat Index: 43°   Visibility: 10mi
Dew Point: 36°   Wind: 7mph
Humidity: 76%   Direction: 250°WSW
Pressure: 29.92"   Gusts: NA
Location:  41.71°N, 76.83°W
Report Text: KN38 250855Z AUTO 25006KT 10SM BKN044 06/02 A2992 RMK AO2
Loading
Personal Weather Stations






























Interactive Weather Map
Tropical Storm Tracking
New forecast layout! Learn more

10-Day Weather Forecast

Advertisements
Track Severe Weather on mobile